sensor_id;sensor_type;location;lat;lon;timestamp;P1;durP1;ratioP1;P2;durP2;ratioP2
34142;SDS011;20419;10.658;106.724;2023-06-26T00:01:47;5.43;;;3.17;;
34142;SDS011;20419;10.658;106.724;2023-06-26T00:04:14;4.60;;;3.03;;
34142;SDS011;20419;10.658;106.724;2023-06-26T00:06:41;6.88;;;3.67;;
34142;SDS011;20419;10.658;106.724;2023-06-26T00:09:08;4.80;;;3.63;;
34142;SDS011;20419;10.658;106.724;2023-06-26T00:11:35;5.40;;;3.45;;
34142;SDS011;20419;10.658;106.724;2023-06-26T00:14:02;5.13;;;3.33;;
34142;SDS011;20419;10.658;106.724;2023-06-26T00:16:30;6.40;;;3.78;;
34142;SDS011;20419;10.658;106.724;2023-06-26T00:18:57;5.78;;;3.50;;
34142;SDS011;20419;10.658;106.724;2023-06-26T00:21:26;5.60;;;3.42;;
34142;SDS011;20419;10.658;106.724;2023-06-26T00:23:53;5.78;;;3.20;;
34142;SDS011;20419;10.658;106.724;2023-06-26T00:26:24;7.35;;;3.90;;
34142;SDS011;20419;10.658;106.724;2023-06-26T00:28:51;5.50;;;3.40;;
34142;SDS011;20419;10.658;106.724;2023-06-26T00:31:18;7.40;;;3.65;;
34142;SDS011;20419;10.658;106.724;2023-06-26T00:33:45;6.05;;;3.20;;
34142;SDS011;20419;10.658;106.724;2023-06-26T00:36:12;6.25;;;3.63;;
34142;SDS011;20419;10.658;106.724;2023-06-26T00:38:39;5.87;;;2.90;;
34142;SDS011;20419;10.658;106.724;2023-06-26T00:41:06;7.88;;;4.35;;
34142;SDS011;20419;10.658;106.724;2023-06-26T00:43:38;7.05;;;3.88;;
34142;SDS011;20419;10.658;106.724;2023-06-26T00:46:06;5.15;;;3.22;;
34142;SDS011;20419;10.658;106.724;2023-06-26T00:48:36;7.05;;;3.78;;
34142;SDS011;20419;10.658;106.724;2023-06-26T00:51:03;6.00;;;3.55;;
34142;SDS011;20419;10.658;106.724;2023-06-26T00:53:30;5.40;;;3.63;;
34142;SDS011;20419;10.658;106.724;2023-06-26T00:55:57;6.88;;;3.47;;
34142;SDS011;20419;10.658;106.724;2023-06-26T00:58:25;5.87;;;3.47;;
34142;SDS011;20419;10.658;106.724;2023-06-26T01:00:53;5.72;;;3.55;;
34142;SDS011;20419;10.658;106.724;2023-06-26T01:03:21;5.68;;;3.63;;
34142;SDS011;20419;10.658;106.724;2023-06-26T01:05:49;6.05;;;3.65;;
34142;SDS011;20419;10.658;106.724;2023-06-26T01:08:20;5.90;;;3.50;;
34142;SDS011;20419;10.658;106.724;2023-06-26T01:10:47;6.15;;;3.70;;
34142;SDS011;20419;10.658;106.724;2023-06-26T01:13:15;5.25;;;3.63;;
34142;SDS011;20419;10.658;106.724;2023-06-26T01:15:43;6.22;;;3.60;;
34142;SDS011;20419;10.658;106.724;2023-06-26T01:18:10;6.35;;;3.85;;
34142;SDS011;20419;10.658;106.724;2023-06-26T01:20:37;5.30;;;3.58;;
34142;SDS011;20419;10.658;106.724;2023-06-26T01:25:53;6.53;;;3.60;;
34142;SDS011;20419;10.658;106.724;2023-06-26T01:28:23;6.82;;;3.78;;
34142;SDS011;20419;10.658;106.724;2023-06-26T01:30:51;7.70;;;3.90;;
34142;SDS011;20419;10.658;106.724;2023-06-26T01:33:21;6.53;;;3.60;;
34142;SDS011;20419;10.658;106.724;2023-06-26T01:35:48;6.53;;;3.85;;
34142;SDS011;20419;10.658;106.724;2023-06-26T01:38:16;8.35;;;3.80;;
34142;SDS011;20419;10.658;106.724;2023-06-26T01:40:43;4.70;;;3.40;;
34142;SDS011;20419;10.658;106.724;2023-06-26T01:43:19;5.38;;;3.35;;
34142;SDS011;20419;10.658;106.724;2023-06-26T01:45:49;4.93;;;3.38;;
34142;SDS011;20419;10.658;106.724;2023-06-26T01:48:18;5.22;;;3.42;;
34142;SDS011;20419;10.658;106.724;2023-06-26T01:50:47;4.57;;;3.30;;
34142;SDS011;20419;10.658;106.724;2023-06-26T01:53:17;5.63;;;3.50;;
34142;SDS011;20419;10.658;106.724;2023-06-26T01:55:50;5.63;;;2.97;;
34142;SDS011;20419;10.658;106.724;2023-06-26T01:58:19;5.10;;;3.00;;
34142;SDS011;20419;10.658;106.724;2023-06-26T02:00:48;5.43;;;3.38;;
34142;SDS011;20419;10.658;106.724;2023-06-26T02:03:15;5.65;;;3.55;;
34142;SDS011;20419;10.658;106.724;2023-06-26T02:05:44;7.88;;;3.63;;
34142;SDS011;20419;10.658;106.724;2023-06-26T02:08:14;5.18;;;3.63;;
34142;SDS011;20419;10.658;106.724;2023-06-26T02:10:41;6.88;;;3.70;;
34142;SDS011;20419;10.658;106.724;2023-06-26T02:13:09;6.30;;;3.75;;
34142;SDS011;20419;10.658;106.724;2023-06-26T02:15:36;5.17;;;3.30;;
34142;SDS011;20419;10.658;106.724;2023-06-26T02:18:03;4.53;;;3.20;;
34142;SDS011;20419;10.658;106.724;2023-06-26T02:20:30;6.82;;;3.63;;
34142;SDS011;20419;10.658;106.724;2023-06-26T02:23:00;4.88;;;3.33;;
34142;SDS011;20419;10.658;106.724;2023-06-26T02:25:27;5.38;;;3.55;;
34142;SDS011;20419;10.658;106.724;2023-06-26T02:27:54;5.85;;;3.55;;
34142;SDS011;20419;10.658;106.724;2023-06-26T02:30:22;5.43;;;3.17;;
34142;SDS011;20419;10.658;106.724;2023-06-26T02:32:49;5.03;;;3.58;;
34142;SDS011;20419;10.658;106.724;2023-06-26T02:35:16;5.32;;;3.42;;
34142;SDS011;20419;10.658;106.724;2023-06-26T02:37:43;7.13;;;3.28;;
34142;SDS011;20419;10.658;106.724;2023-06-26T02:40:10;5.38;;;2.90;;
34142;SDS011;20419;10.658;106.724;2023-06-26T02:42:37;6.55;;;3.33;;
34142;SDS011;20419;10.658;106.724;2023-06-26T02:45:04;8.90;;;3.63;;
34142;SDS011;20419;10.658;106.724;2023-06-26T02:47:31;5.30;;;3.38;;
34142;SDS011;20419;10.658;106.724;2023-06-26T02:49:58;5.47;;;3.42;;
34142;SDS011;20419;10.658;106.724;2023-06-26T02:52:26;5.75;;;3.47;;
34142;SDS011;20419;10.658;106.724;2023-06-26T02:54:54;6.68;;;3.95;;
34142;SDS011;20419;10.658;106.724;2023-06-26T02:57:21;5.20;;;3.40;;
34142;SDS011;20419;10.658;106.724;2023-06-26T02:59:48;5.60;;;3.70;;
34142;SDS011;20419;10.658;106.724;2023-06-26T03:02:16;8.23;;;3.03;;
34142;SDS011;20419;10.658;106.724;2023-06-26T03:04:43;6.20;;;3.43;;
34142;SDS011;20419;10.658;106.724;2023-06-26T03:07:10;5.43;;;3.53;;
34142;SDS011;20419;10.658;106.724;2023-06-26T03:09:36;5.85;;;3.42;;
34142;SDS011;20419;10.658;106.724;2023-06-26T03:12:03;5.43;;;3.30;;
34142;SDS011;20419;10.658;106.724;2023-06-26T03:14:31;5.22;;;3.50;;
34142;SDS011;20419;10.658;106.724;2023-06-26T03:16:58;5.10;;;3.35;;
34142;SDS011;20419;10.658;106.724;2023-06-26T03:19:29;5.60;;;3.58;;
34142;SDS011;20419;10.658;106.724;2023-06-26T03:21:57;5.10;;;3.50;;
34142;SDS011;20419;10.658;106.724;2023-06-26T03:24:24;5.00;;;3.30;;
34142;SDS011;20419;10.658;106.724;2023-06-26T03:26:51;5.32;;;3.03;;
34142;SDS011;20419;10.658;106.724;2023-06-26T03:29:18;4.80;;;3.25;;
34142;SDS011;20419;10.658;106.724;2023-06-26T03:31:45;4.35;;;2.90;;
34142;SDS011;20419;10.658;106.724;2023-06-26T03:34:12;6.43;;;3.50;;
34142;SDS011;20419;10.658;106.724;2023-06-26T03:36:39;4.53;;;3.30;;
34142;SDS011;20419;10.658;106.724;2023-06-26T03:39:06;5.85;;;2.78;;
34142;SDS011;20419;10.658;106.724;2023-06-26T03:41:34;5.28;;;3.67;;
34142;SDS011;20419;10.658;106.724;2023-06-26T03:44:01;6.80;;;3.22;;
34142;SDS011;20419;10.658;106.724;2023-06-26T03:46:28;5.05;;;3.22;;
34142;SDS011;20419;10.658;106.724;2023-06-26T03:48:55;4.78;;;2.85;;
34142;SDS011;20419;10.658;106.724;2023-06-26T03:51:22;4.97;;;2.75;;
34142;SDS011;20419;10.658;106.724;2023-06-26T03:53:49;4.15;;;2.65;;
34142;SDS011;20419;10.658;106.724;2023-06-26T03:56:16;6.85;;;3.50;;
34142;SDS011;20419;10.658;106.724;2023-06-26T03:58:43;4.97;;;3.22;;
34142;SDS011;20419;10.658;106.724;2023-06-26T04:01:10;5.60;;;3.17;;
34142;SDS011;20419;10.658;106.724;2023-06-26T04:03:37;4.82;;;2.85;;
34142;SDS011;20419;10.658;106.724;2023-06-26T04:06:04;4.05;;;2.80;;
34142;SDS011;20419;10.658;106.724;2023-06-26T04:08:31;4.03;;;2.63;;
34142;SDS011;20419;10.658;106.724;2023-06-26T04:10:58;6.57;;;2.70;;
34142;SDS011;20419;10.658;106.724;2023-06-26T04:13:25;4.32;;;2.70;;
34142;SDS011;20419;10.658;106.724;2023-06-26T04:15:52;4.47;;;2.65;;
34142;SDS011;20419;10.658;106.724;2023-06-26T04:18:20;4.40;;;2.85;;
34142;SDS011;20419;10.658;106.724;2023-06-26T04:23:33;4.43;;;2.70;;
34142;SDS011;20419;10.658;106.724;2023-06-26T04:26:00;5.18;;;3.08;;
34142;SDS011;20419;10.658;106.724;2023-06-26T04:28:28;4.18;;;2.53;;
34142;SDS011;20419;10.658;106.724;2023-06-26T04:30:55;4.10;;;2.75;;
34142;SDS011;20419;10.658;106.724;2023-06-26T04:33:22;4.28;;;2.90;;
34142;SDS011;20419;10.658;106.724;2023-06-26T04:35:49;5.07;;;2.92;;
34142;SDS011;20419;10.658;106.724;2023-06-26T04:38:16;4.60;;;2.85;;
34142;SDS011;20419;10.658;106.724;2023-06-26T04:40:43;4.60;;;2.97;;
34142;SDS011;20419;10.658;106.724;2023-06-26T04:43:10;4.90;;;2.85;;
34142;SDS011;20419;10.658;106.724;2023-06-26T04:45:37;4.50;;;2.72;;
34142;SDS011;20419;10.658;106.724;2023-06-26T04:48:04;4.22;;;2.63;;
34142;SDS011;20419;10.658;106.724;2023-06-26T04:50:32;5.18;;;3.22;;
34142;SDS011;20419;10.658;106.724;2023-06-26T04:52:59;4.13;;;2.72;;
34142;SDS011;20419;10.658;106.724;2023-06-26T04:55:26;4.00;;;2.40;;
34142;SDS011;20419;10.658;106.724;2023-06-26T04:57:53;4.35;;;2.40;;
34142;SDS011;20419;10.658;106.724;2023-06-26T05:00:20;3.70;;;2.35;;
34142;SDS011;20419;10.658;106.724;2023-06-26T05:02:48;4.03;;;2.67;;
34142;SDS011;20419;10.658;106.724;2023-06-26T05:05:15;4.05;;;2.65;;
34142;SDS011;20419;10.658;106.724;2023-06-26T05:07:42;3.95;;;2.47;;
34142;SDS011;20419;10.658;106.724;2023-06-26T05:10:09;4.75;;;2.65;;
34142;SDS011;20419;10.658;106.724;2023-06-26T05:12:36;6.43;;;2.50;;
34142;SDS011;20419;10.658;106.724;2023-06-26T05:15:03;3.97;;;2.60;;
34142;SDS011;20419;10.658;106.724;2023-06-26T05:17:30;4.07;;;2.53;;
34142;SDS011;20419;10.658;106.724;2023-06-26T05:19:57;4.30;;;2.83;;
34142;SDS011;20419;10.658;106.724;2023-06-26T05:22:24;4.68;;;2.65;;
34142;SDS011;20419;10.658;106.724;2023-06-26T05:24:52;4.05;;;2.63;;
34142;SDS011;20419;10.658;106.724;2023-06-26T05:27:21;4.25;;;2.53;;
34142;SDS011;20419;10.658;106.724;2023-06-26T05:29:49;3.72;;;2.42;;
34142;SDS011;20419;10.658;106.724;2023-06-26T05:32:16;4.13;;;2.47;;
34142;SDS011;20419;10.658;106.724;2023-06-26T05:34:47;4.60;;;2.70;;
34142;SDS011;20419;10.658;106.724;2023-06-26T05:37:21;5.25;;;2.45;;
34142;SDS011;20419;10.658;106.724;2023-06-26T05:39:48;4.53;;;2.65;;
34142;SDS011;20419;10.658;106.724;2023-06-26T05:42:16;5.85;;;2.38;;
34142;SDS011;20419;10.658;106.724;2023-06-26T05:44:43;5.55;;;2.80;;
34142;SDS011;20419;10.658;106.724;2023-06-26T05:47:10;3.67;;;2.53;;
34142;SDS011;20419;10.658;106.724;2023-06-26T05:49:36;4.75;;;2.90;;
34142;SDS011;20419;10.658;106.724;2023-06-26T05:52:04;3.50;;;2.13;;
34142;SDS011;20419;10.658;106.724;2023-06-26T05:54:31;3.72;;;1.92;;
34142;SDS011;20419;10.658;106.724;2023-06-26T05:56:58;3.97;;;2.58;;
34142;SDS011;20419;10.658;106.724;2023-06-26T05:59:25;3.75;;;2.20;;
34142;SDS011;20419;10.658;106.724;2023-06-26T06:01:52;4.70;;;2.95;;
34142;SDS011;20419;10.658;106.724;2023-06-26T06:04:20;3.72;;;2.40;;
34142;SDS011;20419;10.658;106.724;2023-06-26T06:06:47;4.20;;;2.83;;
34142;SDS011;20419;10.658;106.724;2023-06-26T06:09:14;4.05;;;2.53;;
34142;SDS011;20419;10.658;106.724;2023-06-26T06:11:41;4.40;;;2.50;;
34142;SDS011;20419;10.658;106.724;2023-06-26T06:14:09;4.18;;;2.10;;
34142;SDS011;20419;10.658;106.724;2023-06-26T06:16:36;4.43;;;2.30;;
34142;SDS011;20419;10.658;106.724;2023-06-26T06:19:03;3.63;;;2.08;;
34142;SDS011;20419;10.658;106.724;2023-06-26T06:21:32;4.95;;;2.55;;
34142;SDS011;20419;10.658;106.724;2023-06-26T06:23:59;3.35;;;2.10;;
34142;SDS011;20419;10.658;106.724;2023-06-26T06:26:26;5.43;;;2.40;;
34142;SDS011;20419;10.658;106.724;2023-06-26T06:28:59;4.20;;;2.20;;
34142;SDS011;20419;10.658;106.724;2023-06-26T06:31:26;4.70;;;2.60;;
34142;SDS011;20419;10.658;106.724;2023-06-26T06:33:56;3.45;;;2.22;;
34142;SDS011;20419;10.658;106.724;2023-06-26T06:36:23;4.55;;;2.60;;
34142;SDS011;20419;10.658;106.724;2023-06-26T06:38:50;3.63;;;2.20;;
34142;SDS011;20419;10.658;106.724;2023-06-26T06:41:17;3.50;;;2.22;;
34142;SDS011;20419;10.658;106.724;2023-06-26T06:43:44;5.15;;;2.30;;
34142;SDS011;20419;10.658;106.724;2023-06-26T06:46:11;4.18;;;2.30;;
34142;SDS011;20419;10.658;106.724;2023-06-26T06:48:38;3.67;;;2.08;;
34142;SDS011;20419;10.658;106.724;2023-06-26T06:51:05;4.53;;;2.58;;
34142;SDS011;20419;10.658;106.724;2023-06-26T06:53:32;5.78;;;3.20;;
34142;SDS011;20419;10.658;106.724;2023-06-26T06:55:59;5.53;;;2.63;;
34142;SDS011;20419;10.658;106.724;2023-06-26T06:58:26;4.85;;;2.53;;
34142;SDS011;20419;10.658;106.724;2023-06-26T07:00:53;5.85;;;2.70;;
34142;SDS011;20419;10.658;106.724;2023-06-26T07:03:21;4.33;;;2.63;;
34142;SDS011;20419;10.658;106.724;2023-06-26T07:05:48;5.43;;;2.95;;
34142;SDS011;20419;10.658;106.724;2023-06-26T07:08:15;5.00;;;2.65;;
34142;SDS011;20419;10.658;106.724;2023-06-26T07:10:42;5.50;;;3.05;;
34142;SDS011;20419;10.658;106.724;2023-06-26T07:13:09;9.02;;;2.65;;
34142;SDS011;20419;10.658;106.724;2023-06-26T07:15:36;4.82;;;2.90;;
34142;SDS011;20419;10.658;106.724;2023-06-26T07:18:03;4.18;;;2.85;;
34142;SDS011;20419;10.658;106.724;2023-06-26T07:20:30;4.65;;;2.70;;
34142;SDS011;20419;10.658;106.724;2023-06-26T07:22:57;4.68;;;2.83;;
34142;SDS011;20419;10.658;106.724;2023-06-26T07:25:24;6.30;;;3.05;;
34142;SDS011;20419;10.658;106.724;2023-06-26T07:27:51;4.22;;;2.70;;
34142;SDS011;20419;10.658;106.724;2023-06-26T07:30:18;4.55;;;3.15;;
34142;SDS011;20419;10.658;106.724;2023-06-26T07:32:46;4.50;;;2.92;;
34142;SDS011;20419;10.658;106.724;2023-06-26T07:35:13;4.57;;;2.70;;
34142;SDS011;20419;10.658;106.724;2023-06-26T07:37:40;5.85;;;2.55;;
34142;SDS011;20419;10.658;106.724;2023-06-26T07:40:08;4.37;;;2.60;;
34142;SDS011;20419;10.658;106.724;2023-06-26T07:42:35;4.75;;;2.63;;
34142;SDS011;20419;10.658;106.724;2023-06-26T07:45:02;3.92;;;2.50;;
34142;SDS011;20419;10.658;106.724;2023-06-26T07:47:36;4.40;;;2.72;;
34142;SDS011;20419;10.658;106.724;2023-06-26T07:50:03;5.25;;;3.08;;
34142;SDS011;20419;10.658;106.724;2023-06-26T07:52:30;4.25;;;2.60;;
34142;SDS011;20419;10.658;106.724;2023-06-26T07:54:57;4.47;;;2.67;;
34142;SDS011;20419;10.658;106.724;2023-06-26T07:57:24;3.50;;;2.33;;
34142;SDS011;20419;10.658;106.724;2023-06-26T07:59:51;4.30;;;2.28;;
34142;SDS011;20419;10.658;106.724;2023-06-26T08:02:18;4.03;;;2.42;;
34142;SDS011;20419;10.658;106.724;2023-06-26T08:04:46;3.80;;;2.50;;
34142;SDS011;20419;10.658;106.724;2023-06-26T08:07:13;4.30;;;2.83;;
34142;SDS011;20419;10.658;106.724;2023-06-26T08:09:40;4.03;;;2.33;;
34142;SDS011;20419;10.658;106.724;2023-06-26T08:12:07;3.97;;;2.15;;
34142;SDS011;20419;10.658;106.724;2023-06-26T08:14:34;4.57;;;3.00;;
34142;SDS011;20419;10.658;106.724;2023-06-26T08:17:01;3.70;;;2.15;;
34142;SDS011;20419;10.658;106.724;2023-06-26T08:19:28;4.40;;;2.63;;
34142;SDS011;20419;10.658;106.724;2023-06-26T08:21:55;4.15;;;2.55;;
34142;SDS011;20419;10.658;106.724;2023-06-26T08:24:22;4.57;;;2.97;;
34142;SDS011;20419;10.658;106.724;2023-06-26T08:26:49;4.07;;;2.40;;
34142;SDS011;20419;10.658;106.724;2023-06-26T08:29:16;4.38;;;2.50;;
34142;SDS011;20419;10.658;106.724;2023-06-26T08:31:43;4.45;;;2.65;;
34142;SDS011;20419;10.658;106.724;2023-06-26T08:34:10;5.53;;;2.80;;
34142;SDS011;20419;10.658;106.724;2023-06-26T08:36:37;4.63;;;2.85;;
34142;SDS011;20419;10.658;106.724;2023-06-26T08:39:04;4.82;;;2.88;;
34142;SDS011;20419;10.658;106.724;2023-06-26T08:41:31;4.15;;;2.50;;
34142;SDS011;20419;10.658;106.724;2023-06-26T08:43:58;3.67;;;2.55;;
34142;SDS011;20419;10.658;106.724;2023-06-26T08:46:25;4.30;;;2.67;;
34142;SDS011;20419;10.658;106.724;2023-06-26T08:48:56;4.65;;;2.72;;
34142;SDS011;20419;10.658;106.724;2023-06-26T08:51:24;5.00;;;2.75;;
34142;SDS011;20419;10.658;106.724;2023-06-26T08:53:56;5.47;;;3.05;;
34142;SDS011;20419;10.658;106.724;2023-06-26T08:56:24;3.63;;;2.58;;
34142;SDS011;20419;10.658;106.724;2023-06-26T08:58:51;4.00;;;2.80;;
34142;SDS011;20419;10.658;106.724;2023-06-26T09:01:18;5.25;;;2.83;;
34142;SDS011;20419;10.658;106.724;2023-06-26T09:03:45;4.65;;;2.72;;
34142;SDS011;20419;10.658;106.724;2023-06-26T09:06:12;4.90;;;2.38;;
34142;SDS011;20419;10.658;106.724;2023-06-26T09:08:39;5.43;;;3.20;;
34142;SDS011;20419;10.658;106.724;2023-06-26T09:11:06;8.23;;;3.13;;
34142;SDS011;20419;10.658;106.724;2023-06-26T09:13:33;4.35;;;2.78;;
34142;SDS011;20419;10.658;106.724;2023-06-26T09:16:04;4.57;;;2.92;;
34142;SDS011;20419;10.658;106.724;2023-06-26T09:18:31;6.10;;;2.80;;
34142;SDS011;20419;10.658;106.724;2023-06-26T09:20:59;7.43;;;3.23;;
34142;SDS011;20419;10.658;106.724;2023-06-26T09:23:26;4.30;;;3.00;;
34142;SDS011;20419;10.658;106.724;2023-06-26T09:25:53;5.97;;;3.15;;
34142;SDS011;20419;10.658;106.724;2023-06-26T09:28:20;5.32;;;2.97;;
34142;SDS011;20419;10.658;106.724;2023-06-26T09:30:49;5.13;;;3.22;;
34142;SDS011;20419;10.658;106.724;2023-06-26T09:33:16;4.10;;;3.08;;
34142;SDS011;20419;10.658;106.724;2023-06-26T09:35:44;6.47;;;3.15;;
34142;SDS011;20419;10.658;106.724;2023-06-26T09:38:13;4.68;;;2.88;;
34142;SDS011;20419;10.658;106.724;2023-06-26T09:40:41;4.72;;;3.47;;
34142;SDS011;20419;10.658;106.724;2023-06-26T09:43:09;5.28;;;3.17;;
34142;SDS011;20419;10.658;106.724;2023-06-26T09:45:36;6.50;;;3.50;;
34142;SDS011;20419;10.658;106.724;2023-06-26T09:48:03;5.18;;;3.30;;
34142;SDS011;20419;10.658;106.724;2023-06-26T09:50:33;7.85;;;3.15;;
34142;SDS011;20419;10.658;106.724;2023-06-26T09:53:08;4.97;;;2.92;;
34142;SDS011;20419;10.658;106.724;2023-06-26T09:55:35;4.97;;;3.30;;
34142;SDS011;20419;10.658;106.724;2023-06-26T09:58:03;4.47;;;2.92;;
34142;SDS011;20419;10.658;106.724;2023-06-26T10:00:30;5.28;;;3.20;;
34142;SDS011;20419;10.658;106.724;2023-06-26T10:03:00;4.32;;;2.63;;
34142;SDS011;20419;10.658;106.724;2023-06-26T10:05:27;4.45;;;2.97;;
34142;SDS011;20419;10.658;106.724;2023-06-26T10:07:57;4.70;;;2.90;;
34142;SDS011;20419;10.658;106.724;2023-06-26T10:10:25;4.50;;;2.60;;
34142;SDS011;20419;10.658;106.724;2023-06-26T10:12:54;3.90;;;2.50;;
34142;SDS011;20419;10.658;106.724;2023-06-26T10:15:25;5.00;;;2.72;;
34142;SDS011;20419;10.658;106.724;2023-06-26T10:17:55;4.75;;;2.60;;
34142;SDS011;20419;10.658;106.724;2023-06-26T10:22:49;4.68;;;3.08;;
34142;SDS011;20419;10.658;106.724;2023-06-26T10:25:17;5.40;;;2.88;;
34142;SDS011;20419;10.658;106.724;2023-06-26T10:30:19;4.25;;;2.55;;
34142;SDS011;20419;10.658;106.724;2023-06-26T10:32:47;4.05;;;2.80;;
34142;SDS011;20419;10.658;106.724;2023-06-26T10:35:14;4.60;;;2.60;;
34142;SDS011;20419;10.658;106.724;2023-06-26T10:37:45;3.70;;;2.25;;
34142;SDS011;20419;10.658;106.724;2023-06-26T10:40:12;3.80;;;2.75;;
34142;SDS011;20419;10.658;106.724;2023-06-26T10:42:40;4.53;;;2.83;;
34142;SDS011;20419;10.658;106.724;2023-06-26T10:45:17;3.70;;;2.38;;
34142;SDS011;20419;10.658;106.724;2023-06-26T10:47:48;4.78;;;2.47;;
34142;SDS011;20419;10.658;106.724;2023-06-26T10:50:28;3.95;;;2.50;;
34142;SDS011;20419;10.658;106.724;2023-06-26T10:53:10;3.60;;;2.25;;
34142;SDS011;20419;10.658;106.724;2023-06-26T10:55:43;6.03;;;2.80;;
34142;SDS011;20419;10.658;106.724;2023-06-26T11:03:38;4.15;;;2.45;;
34142;SDS011;20419;10.658;106.724;2023-06-26T11:06:23;3.60;;;2.20;;
34142;SDS011;20419;10.658;106.724;2023-06-26T11:08:51;3.40;;;2.30;;
34142;SDS011;20419;10.658;106.724;2023-06-26T11:11:21;3.70;;;2.22;;
34142;SDS011;20419;10.658;106.724;2023-06-26T11:13:49;3.83;;;2.38;;
34142;SDS011;20419;10.658;106.724;2023-06-26T11:16:16;3.88;;;2.47;;
34142;SDS011;20419;10.658;106.724;2023-06-26T11:18:43;4.70;;;2.30;;
34142;SDS011;20419;10.658;106.724;2023-06-26T11:21:11;4.28;;;2.60;;
34142;SDS011;20419;10.658;106.724;2023-06-26T11:23:39;3.00;;;1.83;;
34142;SDS011;20419;10.658;106.724;2023-06-26T11:26:21;4.70;;;2.50;;
34142;SDS011;20419;10.658;106.724;2023-06-26T11:28:53;3.78;;;2.10;;
34142;SDS011;20419;10.658;106.724;2023-06-26T11:31:30;3.90;;;2.30;;
34142;SDS011;20419;10.658;106.724;2023-06-26T11:33:59;3.25;;;2.00;;
34142;SDS011;20419;10.658;106.724;2023-06-26T11:36:27;4.20;;;2.20;;
34142;SDS011;20419;10.658;106.724;2023-06-26T11:38:58;3.45;;;2.38;;
34142;SDS011;20419;10.658;106.724;2023-06-26T11:41:27;3.90;;;2.60;;
34142;SDS011;20419;10.658;106.724;2023-06-26T11:43:54;3.28;;;1.98;;
34142;SDS011;20419;10.658;106.724;2023-06-26T11:46:22;5.50;;;2.40;;
34142;SDS011;20419;10.658;106.724;2023-06-26T11:48:49;3.88;;;2.45;;
34142;SDS011;20419;10.658;106.724;2023-06-26T11:51:16;3.95;;;2.10;;
34142;SDS011;20419;10.658;106.724;2023-06-26T11:53:43;3.45;;;2.10;;
34142;SDS011;20419;10.658;106.724;2023-06-26T11:56:11;3.92;;;2.22;;
34142;SDS011;20419;10.658;106.724;2023-06-26T12:01:35;3.60;;;1.85;;
34142;SDS011;20419;10.658;106.724;2023-06-26T12:04:06;3.45;;;2.00;;
34142;SDS011;20419;10.658;106.724;2023-06-26T12:06:35;3.80;;;2.22;;
34142;SDS011;20419;10.658;106.724;2023-06-26T12:09:04;3.33;;;1.90;;
34142;SDS011;20419;10.658;106.724;2023-06-26T12:11:32;3.20;;;1.92;;
34142;SDS011;20419;10.658;106.724;2023-06-26T12:14:00;3.70;;;2.10;;
34142;SDS011;20419;10.658;106.724;2023-06-26T12:16:29;4.30;;;1.95;;
34142;SDS011;20419;10.658;106.724;2023-06-26T12:19:03;3.42;;;2.08;;
34142;SDS011;20419;10.658;106.724;2023-06-26T12:24:07;2.85;;;1.75;;
34142;SDS011;20419;10.658;106.724;2023-06-26T12:26:35;3.25;;;2.25;;
34142;SDS011;20419;10.658;106.724;2023-06-26T12:29:03;3.75;;;2.10;;
34142;SDS011;20419;10.658;106.724;2023-06-26T12:31:30;3.50;;;2.10;;
34142;SDS011;20419;10.658;106.724;2023-06-26T12:33:58;3.00;;;1.70;;
34142;SDS011;20419;10.658;106.724;2023-06-26T12:36:25;4.22;;;2.17;;
34142;SDS011;20419;10.658;106.724;2023-06-26T12:38:54;4.10;;;2.47;;
34142;SDS011;20419;10.658;106.724;2023-06-26T12:41:24;3.45;;;2.10;;
34142;SDS011;20419;10.658;106.724;2023-06-26T12:43:57;3.53;;;2.00;;
34142;SDS011;20419;10.658;106.724;2023-06-26T12:46:34;3.05;;;1.73;;
34142;SDS011;20419;10.658;106.724;2023-06-26T12:49:01;2.88;;;1.83;;
34142;SDS011;20419;10.658;106.724;2023-06-26T12:51:28;3.67;;;2.08;;
34142;SDS011;20419;10.658;106.724;2023-06-26T12:53:55;4.72;;;1.98;;
34142;SDS011;20419;10.658;106.724;2023-06-26T12:56:22;3.45;;;1.92;;
34142;SDS011;20419;10.658;106.724;2023-06-26T12:58:49;4.35;;;2.50;;
34142;SDS011;20419;10.658;106.724;2023-06-26T13:01:16;3.30;;;2.00;;
34142;SDS011;20419;10.658;106.724;2023-06-26T13:03:45;3.95;;;2.00;;
34142;SDS011;20419;10.658;106.724;2023-06-26T13:06:12;3.67;;;2.15;;
34142;SDS011;20419;10.658;106.724;2023-06-26T13:08:40;3.20;;;2.03;;
34142;SDS011;20419;10.658;106.724;2023-06-26T13:11:07;3.63;;;2.17;;
34142;SDS011;20419;10.658;106.724;2023-06-26T13:13:33;3.45;;;1.85;;
34142;SDS011;20419;10.658;106.724;2023-06-26T13:16:00;3.38;;;1.90;;
34142;SDS011;20419;10.658;106.724;2023-06-26T13:18:27;3.42;;;1.80;;
34142;SDS011;20419;10.658;106.724;2023-06-26T13:20:54;4.22;;;2.33;;
34142;SDS011;20419;10.658;106.724;2023-06-26T13:23:21;3.63;;;2.17;;
34142;SDS011;20419;10.658;106.724;2023-06-26T13:25:49;3.80;;;2.22;;
34142;SDS011;20419;10.658;106.724;2023-06-26T13:28:17;4.13;;;1.97;;
34142;SDS011;20419;10.658;106.724;2023-06-26T13:30:44;3.80;;;2.10;;
34142;SDS011;20419;10.658;106.724;2023-06-26T13:33:10;3.53;;;2.15;;
34142;SDS011;20419;10.658;106.724;2023-06-26T13:35:37;3.40;;;2.17;;
34142;SDS011;20419;10.658;106.724;2023-06-26T13:38:04;3.30;;;2.10;;
34142;SDS011;20419;10.658;106.724;2023-06-26T13:40:31;3.65;;;2.30;;
34142;SDS011;20419;10.658;106.724;2023-06-26T13:42:58;3.67;;;2.10;;
34142;SDS011;20419;10.658;106.724;2023-06-26T13:45:25;3.50;;;1.80;;
34142;SDS011;20419;10.658;106.724;2023-06-26T13:47:52;3.17;;;1.88;;
34142;SDS011;20419;10.658;106.724;2023-06-26T13:50:18;3.38;;;2.22;;
34142;SDS011;20419;10.658;106.724;2023-06-26T13:52:45;3.30;;;2.00;;
34142;SDS011;20419;10.658;106.724;2023-06-26T13:55:12;4.10;;;2.17;;
34142;SDS011;20419;10.658;106.724;2023-06-26T13:57:39;3.70;;;2.20;;
34142;SDS011;20419;10.658;106.724;2023-06-26T14:00:08;3.92;;;2.38;;
34142;SDS011;20419;10.658;106.724;2023-06-26T14:02:37;3.15;;;2.05;;
34142;SDS011;20419;10.658;106.724;2023-06-26T14:05:04;4.35;;;2.38;;
34142;SDS011;20419;10.658;106.724;2023-06-26T14:07:31;4.00;;;2.28;;
34142;SDS011;20419;10.658;106.724;2023-06-26T14:09:58;3.78;;;2.35;;
34142;SDS011;20419;10.658;106.724;2023-06-26T14:12:24;3.92;;;2.03;;
34142;SDS011;20419;10.658;106.724;2023-06-26T14:14:51;3.63;;;2.15;;
34142;SDS011;20419;10.658;106.724;2023-06-26T14:17:18;3.55;;;2.15;;
34142;SDS011;20419;10.658;106.724;2023-06-26T14:19:45;4.80;;;2.47;;
34142;SDS011;20419;10.658;106.724;2023-06-26T14:22:12;3.72;;;2.35;;
34142;SDS011;20419;10.658;106.724;2023-06-26T14:24:39;4.05;;;2.20;;
34142;SDS011;20419;10.658;106.724;2023-06-26T14:27:06;3.72;;;2.22;;
34142;SDS011;20419;10.658;106.724;2023-06-26T14:29:33;3.97;;;2.30;;
34142;SDS011;20419;10.658;106.724;2023-06-26T14:31:59;3.13;;;2.03;;
34142;SDS011;20419;10.658;106.724;2023-06-26T14:34:26;3.97;;;2.25;;
34142;SDS011;20419;10.658;106.724;2023-06-26T14:36:53;3.75;;;2.42;;
34142;SDS011;20419;10.658;106.724;2023-06-26T14:39:20;3.90;;;2.60;;
34142;SDS011;20419;10.658;106.724;2023-06-26T14:41:47;4.95;;;2.63;;
34142;SDS011;20419;10.658;106.724;2023-06-26T14:44:14;3.63;;;2.20;;
34142;SDS011;20419;10.658;106.724;2023-06-26T14:46:41;3.60;;;2.40;;